Estherville, Iowa
Current Conditions -  °F | °C
As of 7:52 AM on Monday 24 Nov 2014 (Local Time) from KEST Reporting Station
Overcast Overcast  
Wind Chill: -19°   Ceiling: 1800
Heat Index: -8°   Visibility: 10mi
Dew Point: -11°   Wind: 30mph
Humidity: 78%   Direction: 320°NW
Pressure: 29.5"   Gusts: 37mph
Location:  43.4°N, 94.84°W
Report Text: KEST 241352Z AUTO 32026G32KT 10SM BKN018 BKN024 OVC039 M08/M11 A2950 RMK AO2 PK WND 31035/1254 SLP004 T10781111
Loading
Personal Weather Stations






























Interactive Weather Map New forecast layout! Learn more

10-Day Weather Forecast

Advertisements
Track Severe Weather on mobile